Time;durP1;ratioP1;P1;durP2;ratioP2;P2;SDS_P1;SDS_P2;PMS_P1;PMS_P2;Temp;Humidity;BMP_temperature;BMP_pressure;BME280_temperature;BME280_humidity;BME280_pressure;Samples;Min_cycle;Max_cycle;Signal;HPM_P1;HPM_P2
2021/09/02 00:01:03;;;;;;;2.03;1.40;;;12.50;98.00;;;;;;5051127;28;20463;-67
2021/09/02 00:03:31;;;;;;;1.80;1.60;;;12.40;98.00;;;;;;5051140;28;21035;-69
2021/09/02 00:05:58;;;;;;;2.03;1.40;;;12.40;98.00;;;;;;5050502;28;20455;-69
2021/09/02 00:08:26;;;;;;;1.40;1.37;;;12.30;98.00;;;;;;5051529;28;20498;-69
2021/09/02 00:10:53;;;;;;;1.40;1.10;;;12.30;98.00;;;;;;5051656;28;20569;-70
2021/09/02 00:13:20;;;;;;;1.20;1.10;;;12.40;98.00;;;;;;5050517;28;20522;-68
2021/09/02 00:15:47;;;;;;;2.43;1.73;;;12.50;98.00;;;;;;5051527;28;20464;-70
2021/09/02 00:18:15;;;;;;;1.20;1.10;;;12.50;98.00;;;;;;5051588;28;20461;-68
2021/09/02 00:20:42;;;;;;;2.50;1.70;;;12.50;98.00;;;;;;5051642;28;20887;-70
2021/09/02 00:23:09;;;;;;;1.30;1.20;;;12.40;98.00;;;;;;5050370;28;20484;-69
2021/09/02 00:25:37;;;;;;;1.87;1.63;;;12.40;98.00;;;;;;5051567;28;20486;-68
2021/09/02 00:28:04;;;;;;;1.60;1.30;;;12.40;98.00;;;;;;5051649;28;20502;-68
2021/09/02 00:30:38;;;;;;;3.00;1.67;;;12.40;98.00;;;;;;5051465;28;20575;-69
2021/09/02 00:33:05;;;;;;;2.50;1.30;;;12.50;98.00;;;;;;5051290;28;20496;-68
2021/09/02 00:35:35;;;;;;;5.00;1.73;;;12.50;98.00;;;;;;5051484;28;20578;-68
2021/09/02 00:38:02;;;;;;;2.23;1.30;;;12.40;98.00;;;;;;5051457;28;20503;-68
2021/09/02 00:40:28;;;;;;;1.60;1.30;;;12.40;98.00;;;;;;5051354;28;20496;-70
2021/09/02 00:42:55;;;;;;;1.40;1.10;;;12.30;98.00;;;;;;5051422;28;20500;-70
2021/09/02 00:45:22;;;;;;;1.30;1.20;;;12.10;98.00;;;;;;5051332;28;20536;-69
2021/09/02 00:47:50;;;;;;;1.90;1.33;;;12.00;98.00;;;;;;5051472;28;20483;-68
2021/09/02 00:50:17;;;;;;;1.20;1.10;;;12.20;98.00;;;;;;5051309;28;20576;-68
2021/09/02 00:52:45;;;;;;;2.67;1.60;;;12.20;98.00;;;;;;5051421;28;20548;-68
2021/09/02 00:55:13;;;;;;;2.07;1.37;;;12.10;98.00;;;;;;5051479;28;20460;-69
2021/09/02 00:57:40;;;;;;;1.30;1.13;;;12.00;98.00;;;;;;5051496;28;20492;-70
2021/09/02 01:00:10;;;;;;;1.90;1.30;;;11.80;98.00;;;;;;5051295;28;20516;-68
2021/09/02 01:02:38;;;;;;;1.50;1.40;;;11.90;98.00;;;;;;5051537;28;20530;-69
2021/09/02 01:05:06;;;;;;;1.63;1.53;;;11.80;98.00;;;;;;5051456;28;21027;-68
2021/09/02 01:07:35;;;;;;;1.20;1.10;;;11.80;98.00;;;;;;5051502;28;20522;-69
2021/09/02 01:10:05;;;;;;;1.50;1.10;;;11.80;98.00;;;;;;5051204;28;20486;-68
2021/09/02 01:12:36;;;;;;;2.23;1.50;;;11.90;98.00;;;;;;5054629;28;20923;-69
2021/09/02 01:15:05;;;;;;;1.27;1.23;;;12.00;98.00;;;;;;5054936;28;20468;-69
2021/09/02 01:17:33;;;;;;;1.40;1.20;;;11.90;98.00;;;;;;5055127;28;20492;-70
2021/09/02 01:20:00;;;;;;;1.20;1.10;;;11.80;98.00;;;;;;5054811;28;20491;-68
2021/09/02 01:22:29;;;;;;;1.30;1.10;;;11.80;98.00;;;;;;5053542;28;20495;-69
2021/09/02 01:24:58;;;;;;;1.20;1.10;;;11.80;98.00;;;;;;5054758;28;20485;-68
2021/09/02 01:27:27;;;;;;;1.50;1.10;;;11.90;98.00;;;;;;5054777;28;20464;-69
2021/09/02 01:29:54;;;;;;;1.30;1.20;;;12.00;98.00;;;;;;5053317;28;20480;-68
2021/09/02 01:32:22;;;;;;;1.30;1.30;;;12.10;98.00;;;;;;5054535;28;20499;-68
2021/09/02 01:34:49;;;;;;;1.60;1.30;;;12.00;98.00;;;;;;5054429;28;21025;-69
2021/09/02 01:37:16;;;;;;;1.30;1.00;;;11.90;98.00;;;;;;5054472;28;20511;-68
2021/09/02 01:39:43;;;;;;;1.40;1.20;;;11.90;98.00;;;;;;5053328;28;20482;-69
2021/09/02 01:42:15;;;;;;;1.63;1.30;;;11.80;98.00;;;;;;5054525;28;20559;-69
2021/09/02 01:44:42;;;;;;;1.30;1.20;;;11.90;98.00;;;;;;5054315;28;20488;-68
2021/09/02 01:47:26;;;;;;;2.07;1.43;;;11.70;98.00;;;;;;5054332;28;20553;-67
2021/09/02 01:49:54;;;;;;;1.30;1.20;;;11.70;98.00;;;;;;5054191;28;20546;-68
2021/09/02 01:52:23;;;;;;;1.60;1.20;;;11.80;98.00;;;;;;5054393;28;20889;-68
2021/09/02 01:54:50;;;;;;;1.33;1.27;;;11.80;98.00;;;;;;5054161;28;20998;-69
2021/09/02 01:57:18;;;;;;;1.30;1.23;;;11.70;98.00;;;;;;5053084;28;20459;-70
2021/09/02 01:59:45;;;;;;;1.73;1.47;;;11.70;98.00;;;;;;5053967;28;20460;-67
2021/09/02 02:02:12;;;;;;;1.47;1.23;;;11.60;98.00;;;;;;5054089;28;21074;-68
2021/09/02 02:04:39;;;;;;;1.20;1.10;;;11.50;98.00;;;;;;5054044;28;20866;-69
2021/09/02 02:07:07;;;;;;;1.80;1.33;;;11.40;98.00;;;;;;5054133;28;21010;-68
2021/09/02 02:09:34;;;;;;;1.67;1.50;;;11.30;98.00;;;;;;5053982;28;20575;-68
2021/09/02 02:12:02;;;;;;;1.57;1.40;;;11.30;98.00;;;;;;5054007;28;20515;-67
2021/09/02 02:14:30;;;;;;;1.40;1.20;;;11.30;98.00;;;;;;5053783;28;20495;-68
2021/09/02 02:16:57;;;;;;;1.30;1.10;;;11.50;98.00;;;;;;5053996;28;20503;-68
2021/09/02 02:19:24;;;;;;;1.30;1.23;;;11.60;98.00;;;;;;5053852;28;20509;-70
2021/09/02 02:21:52;;;;;;;2.13;1.30;;;11.50;98.00;;;;;;5053458;28;20495;-69
2021/09/02 02:24:19;;;;;;;1.37;1.20;;;11.50;98.00;;;;;;5054034;28;20538;-68
2021/09/02 02:26:46;;;;;;;1.20;1.20;;;11.40;98.00;;;;;;5053768;28;20460;-67
2021/09/02 02:29:13;;;;;;;1.90;1.33;;;11.30;98.00;;;;;;5053629;28;20491;-68
2021/09/02 02:31:42;;;;;;;1.20;1.00;;;11.10;98.00;;;;;;5052415;28;20460;-69
2021/09/02 02:34:09;;;;;;;1.20;1.00;;;11.20;98.00;;;;;;5053940;28;20489;-67
2021/09/02 02:36:36;;;;;;;1.30;1.23;;;11.40;98.00;;;;;;5053527;28;20490;-68
2021/09/02 02:39:03;;;;;;;1.20;1.10;;;11.40;98.00;;;;;;5053549;28;20493;-69
2021/09/02 02:41:30;;;;;;;1.20;1.00;;;11.30;98.00;;;;;;5053306;28;20482;-68
2021/09/02 02:43:57;;;;;;;1.50;1.30;;;11.30;98.00;;;;;;5053247;28;20530;-69
2021/09/02 02:46:25;;;;;;;1.20;1.10;;;11.40;98.00;;;;;;5053314;28;20547;-68
2021/09/02 02:48:54;;;;;;;1.40;1.30;;;11.40;98.00;;;;;;5053026;28;20464;-69
2021/09/02 02:51:21;;;;;;;1.40;1.23;;;11.30;98.00;;;;;;5051707;28;20574;-68
2021/09/02 02:53:48;;;;;;;1.73;1.30;;;11.30;98.00;;;;;;5053064;28;20489;-67
2021/09/02 02:56:15;;;;;;;1.20;1.00;;;11.20;98.00;;;;;;5053059;28;20487;-68
2021/09/02 02:58:42;;;;;;;2.13;1.47;;;11.00;98.00;;;;;;5052815;28;20546;-69
2021/09/02 03:01:11;;;;;;;2.13;1.50;;;11.00;98.00;;;;;;5052948;28;20486;-69
2021/09/02 03:03:38;;;;;;;1.20;1.10;;;10.90;98.00;;;;;;5052825;28;20463;-67
2021/09/02 03:06:08;;;;;;;1.20;1.10;;;10.90;98.00;;;;;;5053103;28;21003;-69
2021/09/02 03:08:35;;;;;;;1.57;1.30;;;10.80;98.00;;;;;;5052793;28;20548;-68
2021/09/02 03:11:02;;;;;;;1.30;1.20;;;10.80;98.00;;;;;;5052610;28;20973;-69
2021/09/02 03:13:29;;;;;;;1.37;1.33;;;10.90;98.00;;;;;;5052787;28;20522;-68
2021/09/02 03:15:55;;;;;;;1.20;1.10;;;10.90;98.00;;;;;;5052697;28;20852;-69
2021/09/02 03:18:22;;;;;;;1.30;1.10;;;10.90;98.00;;;;;;5052618;28;20936;-68
2021/09/02 03:20:49;;;;;;;2.70;1.30;;;10.80;98.00;;;;;;5052553;28;20490;-69
2021/09/02 03:23:18;;;;;;;1.20;1.07;;;10.90;98.00;;;;;;5052804;28;20457;-68
2021/09/02 03:25:45;;;;;;;1.20;1.00;;;10.90;98.00;;;;;;5052345;28;20457;-68
2021/09/02 03:28:12;;;;;;;1.40;1.23;;;10.90;98.00;;;;;;5051456;28;20481;-69
2021/09/02 03:30:39;;;;;;;1.70;1.30;;;10.90;98.00;;;;;;5052349;28;20519;-69
2021/09/02 03:33:06;;;;;;;1.30;1.23;;;10.90;98.00;;;;;;5052155;28;20498;-69
2021/09/02 03:35:33;;;;;;;1.67;1.53;;;11.10;98.00;;;;;;5051818;28;20463;-68
2021/09/02 03:38:00;;;;;;;1.20;1.10;;;10.90;98.00;;;;;;5052469;28;20472;-68
2021/09/02 03:40:29;;;;;;;1.60;1.40;;;11.00;98.00;;;;;;5052250;28;20486;-68
2021/09/02 03:42:55;;;;;;;1.20;1.00;;;10.90;98.00;;;;;;5052239;28;20491;-69
2021/09/02 03:45:22;;;;;;;2.33;1.50;;;10.90;98.00;;;;;;5052292;28;20580;-70
2021/09/02 03:47:51;;;;;;;1.40;1.23;;;10.90;98.00;;;;;;5052271;28;20495;-69
2021/09/02 03:50:19;;;;;;;2.13;1.20;;;10.80;98.00;;;;;;5052186;28;20519;-68
2021/09/02 03:52:46;;;;;;;2.40;1.40;;;10.70;98.00;;;;;;5052304;28;21032;-68
2021/09/02 03:55:14;;;;;;;1.40;1.33;;;10.70;98.00;;;;;;5052192;28;20490;-69
2021/09/02 03:57:42;;;;;;;1.23;1.03;;;10.70;98.00;;;;;;5051746;28;20515;-69
2021/09/02 04:00:11;;;;;;;1.27;1.23;;;10.70;98.00;;;;;;5052162;28;20518;-69
2021/09/02 04:02:39;;;;;;;1.30;1.10;;;10.60;98.00;;;;;;5051764;28;20461;-71
2021/09/02 04:05:09;;;;;;;1.40;1.10;;;10.50;98.00;;;;;;5050539;28;20524;-68
2021/09/02 04:07:37;;;;;;;1.20;1.10;;;10.40;98.00;;;;;;5051868;28;20494;-68
2021/09/02 04:10:05;;;;;;;1.20;1.10;;;10.60;98.00;;;;;;5051648;28;20461;-67
2021/09/02 04:12:32;;;;;;;1.60;1.17;;;10.50;98.00;;;;;;5051701;28;20515;-68
2021/09/02 04:15:00;;;;;;;1.20;1.20;;;10.60;98.00;;;;;;5051692;28;20523;-69
2021/09/02 04:17:28;;;;;;;1.53;1.20;;;10.60;98.00;;;;;;5051673;28;20535;-69
2021/09/02 04:19:55;;;;;;;1.20;1.10;;;10.50;98.00;;;;;;5051482;28;20459;-69
2021/09/02 04:22:22;;;;;;;2.13;1.20;;;10.40;98.00;;;;;;5051707;28;20459;-69
2021/09/02 04:24:49;;;;;;;1.90;1.33;;;10.40;98.00;;;;;;5051478;28;20498;-69
2021/09/02 04:27:17;;;;;;;1.53;1.30;;;10.30;98.00;;;;;;5051771;28;21078;-68
2021/09/02 04:29:44;;;;;;;1.20;1.00;;;10.30;98.00;;;;;;5051228;28;20468;-69
2021/09/02 04:32:14;;;;;;;1.20;1.00;;;10.30;98.00;;;;;;5051472;28;20508;-68
2021/09/02 04:34:41;;;;;;;3.50;1.30;;;10.30;98.00;;;;;;5051510;28;20556;-69
2021/09/02 04:37:08;;;;;;;1.83;1.30;;;10.20;98.00;;;;;;5051494;28;20467;-68
2021/09/02 04:39:35;;;;;;;1.50;1.47;;;10.20;98.00;;;;;;5051433;28;20537;-68
2021/09/02 04:42:02;;;;;;;1.30;1.10;;;10.10;98.00;;;;;;5051414;28;20517;-68
2021/09/02 04:44:29;;;;;;;1.87;1.20;;;10.10;98.00;;;;;;5050168;28;20558;-67
2021/09/02 04:46:56;;;;;;;1.30;1.20;;;10.20;98.00;;;;;;5055391;28;20516;-68
2021/09/02 04:49:24;;;;;;;1.40;1.10;;;10.10;98.00;;;;;;5055536;28;20515;-68
2021/09/02 04:51:51;;;;;;;2.47;1.57;;;10.10;98.00;;;;;;5055239;28;20495;-67
2021/09/02 04:54:18;;;;;;;1.27;1.10;;;10.20;98.00;;;;;;5055393;28;20537;-68
2021/09/02 04:56:45;;;;;;;1.70;1.10;;;10.30;98.00;;;;;;5055390;28;20538;-67
2021/09/02 04:59:13;;;;;;;1.20;1.10;;;10.30;98.00;;;;;;5055420;28;20558;-68
2021/09/02 05:01:40;;;;;;;1.27;1.20;;;10.30;98.00;;;;;;5055151;28;20524;-68
2021/09/02 05:04:07;;;;;;;1.90;1.40;;;10.30;98.00;;;;;;5055298;28;20893;-68
2021/09/02 05:06:35;;;;;;;2.00;1.87;;;10.20;98.00;;;;;;5055300;28;20493;-67
2021/09/02 05:09:02;;;;;;;1.87;1.37;;;10.20;98.00;;;;;;5055238;28;20548;-68
2021/09/02 05:11:29;;;;;;;1.40;1.20;;;10.20;98.00;;;;;;5055230;28;20861;-68
2021/09/02 05:13:56;;;;;;;1.20;1.10;;;10.30;98.00;;;;;;5055410;28;20494;-68
2021/09/02 05:16:23;;;;;;;1.53;1.37;;;10.30;98.00;;;;;;5055321;28;20493;-68
2021/09/02 05:18:50;;;;;;;1.53;1.20;;;10.40;98.00;;;;;;5054942;28;20482;-68
2021/09/02 05:21:17;;;;;;;1.30;1.10;;;10.40;98.00;;;;;;5055157;28;20992;-67
2021/09/02 05:23:45;;;;;;;1.20;1.10;;;10.30;98.00;;;;;;5054821;28;20504;-67
2021/09/02 05:26:14;;;;;;;1.87;1.60;;;10.30;98.00;;;;;;5054803;28;20457;-69
2021/09/02 05:28:41;;;;;;;2.33;1.30;;;10.40;98.00;;;;;;5054702;28;20458;-69
2021/09/02 05:31:08;;;;;;;1.20;1.00;;;10.30;98.00;;;;;;5054648;28;20457;-68
2021/09/02 05:33:41;;;;;;;1.60;1.10;;;10.30;98.00;;;;;;5054374;28;20464;-70
2021/09/02 05:36:09;;;;;;;1.20;1.00;;;10.40;98.00;;;;;;5054619;28;20477;-70
2021/09/02 05:38:39;;;;;;;1.20;1.10;;;10.30;98.00;;;;;;5054653;28;20489;-68
2021/09/02 05:41:07;;;;;;;1.43;1.20;;;10.30;98.00;;;;;;5054437;28;20611;-67
2021/09/02 05:43:35;;;;;;;1.33;1.30;;;10.30;98.00;;;;;;5054430;28;20490;-68
2021/09/02 05:46:02;;;;;;;3.40;1.97;;;10.40;98.00;;;;;;5054362;28;20457;-67
2021/09/02 05:48:29;;;;;;;1.50;1.23;;;10.60;98.00;;;;;;5054537;28;20932;-69
2021/09/02 05:50:56;;;;;;;3.23;1.37;;;10.70;98.00;;;;;;5054178;28;20468;-67
2021/09/02 05:53:24;;;;;;;1.43;1.20;;;10.70;98.00;;;;;;5054305;28;20452;-69
2021/09/02 05:55:51;;;;;;;1.57;1.40;;;10.70;98.00;;;;;;5054250;28;20452;-69
2021/09/02 05:58:20;;;;;;;4.13;1.70;;;10.80;98.00;;;;;;5053827;28;20827;-70
2021/09/02 06:00:48;;;;;;;1.23;1.07;;;10.80;98.00;;;;;;5053943;28;20483;-68
2021/09/02 06:03:15;;;;;;;2.77;1.80;;;10.90;98.00;;;;;;5054252;28;20458;-68
2021/09/02 06:05:42;;;;;;;1.60;1.30;;;10.90;98.00;;;;;;5054146;28;21007;-67
2021/09/02 06:08:09;;;;;;;1.70;1.70;;;11.00;98.00;;;;;;5052747;28;20498;-67
2021/09/02 06:10:36;;;;;;;1.53;1.30;;;11.20;98.00;;;;;;5053897;28;20500;-69
2021/09/02 06:13:03;;;;;;;1.43;1.33;;;11.30;98.00;;;;;;5054002;28;20884;-68
2021/09/02 06:15:32;;;;;;;1.20;1.20;;;11.30;98.00;;;;;;5052706;28;20869;-69
2021/09/02 06:17:59;;;;;;;1.40;1.20;;;11.40;98.00;;;;;;5052669;28;20940;-70
2021/09/02 06:20:28;;;;;;;1.40;1.30;;;11.60;98.00;;;;;;5053800;28;20522;-68
2021/09/02 06:22:56;;;;;;;1.20;1.10;;;11.70;98.00;;;;;;5053756;28;20460;-68
2021/09/02 06:25:23;;;;;;;1.20;1.10;;;11.80;98.00;;;;;;5053729;28;20457;-68
2021/09/02 06:27:50;;;;;;;2.27;1.47;;;11.90;98.00;;;;;;5053826;28;20483;-70
2021/09/02 06:30:17;;;;;;;2.40;1.50;;;12.10;98.00;;;;;;5053744;28;20847;-68
2021/09/02 06:32:45;;;;;;;1.50;1.40;;;12.00;98.00;;;;;;5053312;28;20497;-68
2021/09/02 06:35:12;;;;;;;1.50;1.20;;;12.00;98.00;;;;;;5053058;28;20455;-68
2021/09/02 06:37:42;;;;;;;1.80;1.40;;;12.10;98.00;;;;;;5053161;28;21054;-68
2021/09/02 06:40:11;;;;;;;1.20;1.10;;;12.10;98.00;;;;;;5052121;28;20888;-69
2021/09/02 06:42:38;;;;;;;1.57;1.30;;;12.20;98.00;;;;;;5053566;28;21061;-67
2021/09/02 06:45:06;;;;;;;4.00;1.97;;;12.10;98.00;;;;;;5053097;28;20549;-68
2021/09/02 06:47:35;;;;;;;2.97;1.33;;;12.10;98.00;;;;;;5053294;28;20453;-67
2021/09/02 06:50:03;;;;;;;1.30;1.10;;;12.10;98.00;;;;;;5052705;28;20974;-68
2021/09/02 06:52:31;;;;;;;3.70;1.43;;;12.30;98.00;;;;;;5052481;28;20492;-68
2021/09/02 06:54:58;;;;;;;1.60;1.50;;;12.30;98.00;;;;;;5052045;28;20453;-68
2021/09/02 06:57:25;;;;;;;1.20;1.10;;;12.40;98.00;;;;;;5052435;28;21058;-69
2021/09/02 06:59:54;;;;;;;3.30;1.27;;;12.60;98.00;;;;;;5052845;28;20490;-68
2021/09/02 07:02:21;;;;;;;1.30;1.10;;;12.60;98.00;;;;;;5052862;28;20882;-68
2021/09/02 07:04:48;;;;;;;1.43;1.33;;;12.70;98.00;;;;;;5052843;28;20464;-69
2021/09/02 07:07:16;;;;;;;1.40;1.30;;;12.90;98.00;;;;;;5051482;28;20537;-69
2021/09/02 07:09:43;;;;;;;2.23;1.27;;;12.90;98.00;;;;;;5051612;28;20516;-70
2021/09/02 07:12:10;;;;;;;1.20;1.20;;;13.20;98.00;;;;;;5052783;28;20450;-69
2021/09/02 07:14:37;;;;;;;1.53;1.17;;;13.20;98.00;;;;;;5052882;28;20461;-69
2021/09/02 07:17:05;;;;;;;2.80;1.40;;;13.30;98.00;;;;;;5051793;28;20494;-68
2021/09/02 07:19:35;;;;;;;1.63;1.20;;;13.50;98.00;;;;;;5052333;28;20460;-68
2021/09/02 07:22:03;;;;;;;3.30;1.60;;;13.70;98.00;;;;;;5052519;28;20578;-69
2021/09/02 07:24:31;;;;;;;2.03;1.30;;;13.70;98.00;;;;;;5052759;28;20469;-69
2021/09/02 07:26:58;;;;;;;1.67;1.40;;;13.80;98.00;;;;;;5052536;28;20480;-69
2021/09/02 07:29:35;;;;;;;2.27;1.43;;;14.00;98.00;;;;;;5150738;27;20538;-69
2021/09/02 07:32:02;;;;;;;1.90;1.33;;;14.00;98.00;;;;;;5115110;28;21108;-68
2021/09/02 07:34:29;;;;;;;1.20;1.03;;;14.10;98.00;;;;;;5111349;28;20447;-71
2021/09/02 07:36:57;;;;;;;1.40;1.30;;;14.90;98.00;;;;;;5112958;28;20483;-69
2021/09/02 07:39:24;;;;;;;2.20;1.80;;;15.40;98.00;;;;;;5116732;28;20469;-71
2021/09/02 07:41:51;;;;;;;2.43;1.53;;;15.60;98.00;;;;;;5117329;28;20546;-70
2021/09/02 07:44:18;;;;;;;1.40;1.27;;;15.70;98.00;;;;;;5116443;28;20897;-69
2021/09/02 07:46:46;;;;;;;4.40;1.83;;;15.70;98.00;;;;;;5117601;28;21041;-71
2021/09/02 07:49:15;;;;;;;3.73;2.03;;;15.90;98.00;;;;;;5117866;28;20488;-73
2021/09/02 07:51:43;;;;;;;2.50;1.93;;;15.90;98.00;;;;;;5107703;28;20467;-69
2021/09/02 07:54:10;;;;;;;3.57;1.70;;;15.90;98.00;;;;;;5111741;28;20621;-69
2021/09/02 07:56:37;;;;;;;2.30;1.87;;;15.90;98.00;;;;;;5114378;28;20949;-67
2021/09/02 07:59:04;;;;;;;2.53;1.50;;;16.00;98.00;;;;;;5118764;28;20535;-68
2021/09/02 08:04:17;;;;;;;1.30;1.27;;;16.20;98.00;;;;;;5101222;28;20464;-69
2021/09/02 08:06:44;;;;;;;2.17;1.40;;;16.30;98.00;;;;;;5116320;28;20489;-68
2021/09/02 08:09:11;;;;;;;2.00;1.73;;;16.40;98.00;;;;;;5115372;27;20934;-70
2021/09/02 08:11:38;;;;;;;2.57;1.60;;;16.50;98.00;;;;;;5120377;28;20450;-70
2021/09/02 08:14:05;;;;;;;1.40;1.33;;;16.60;98.00;;;;;;5111480;28;20551;-69
2021/09/02 08:16:32;;;;;;;2.37;1.73;;;16.80;98.00;;;;;;5115117;28;20484;-69
2021/09/02 08:18:59;;;;;;;1.87;1.50;;;16.90;98.00;;;;;;5111383;28;20895;-70
2021/09/02 08:21:30;;;;;;;3.53;1.70;;;17.10;98.00;;;;;;5115864;28;20489;-69
2021/09/02 08:23:58;;;;;;;2.30;1.80;;;17.30;98.00;;;;;;5112787;28;20499;-70
2021/09/02 08:26:26;;;;;;;2.27;1.50;;;17.40;98.00;;;;;;5120395;28;20458;-70
2021/09/02 08:28:53;;;;;;;1.90;1.57;;;17.50;98.00;;;;;;5120259;28;20501;-69
2021/09/02 08:31:20;;;;;;;1.97;1.50;;;17.70;98.00;;;;;;5106098;28;20494;-69
2021/09/02 08:33:48;;;;;;;1.90;1.50;;;17.80;98.00;;;;;;5111411;28;20478;-70
2021/09/02 08:36:15;;;;;;;2.27;1.60;;;17.90;98.00;;;;;;5121655;28;20456;-68
2021/09/02 08:38:47;;;;;;;1.70;1.33;;;18.10;98.00;;;;;;5115152;28;21002;-68
2021/09/02 08:41:15;;;;;;;1.90;1.60;;;18.30;98.00;;;;;;5096584;28;20451;-70
2021/09/02 08:43:43;;;;;;;3.00;1.60;;;18.40;98.00;;;;;;5101290;28;20503;-69
2021/09/02 08:46:10;;;;;;;2.00;1.57;;;18.40;98.00;;;;;;5094064;28;20464;-72
2021/09/02 08:48:42;;;;;;;2.57;1.57;;;18.50;98.00;;;;;;5093957;28;20519;-70
2021/09/02 08:51:09;;;;;;;1.50;1.50;;;18.70;98.00;;;;;;5093657;28;20462;-71
2021/09/02 08:53:36;;;;;;;1.60;1.53;;;18.90;98.00;;;;;;5093841;28;20460;-70
2021/09/02 08:56:05;;;;;;;1.90;1.40;;;19.00;98.00;;;;;;5094334;28;20487;-71
2021/09/02 08:58:32;;;;;;;1.70;1.50;;;19.30;98.00;;;;;;5094404;28;20492;-68
2021/09/02 09:01:00;;;;;;;1.50;1.33;;;19.30;98.00;;;;;;5094461;28;20517;-70
2021/09/02 09:03:27;;;;;;;1.70;1.47;;;19.50;98.00;;;;;;5094430;28;20447;-70
2021/09/02 09:05:56;;;;;;;1.97;1.53;;;19.60;98.00;;;;;;5094009;28;20491;-71
2021/09/02 09:08:32;;;;;;;1.87;1.67;;;19.70;98.00;;;;;;5094122;28;20973;-70
2021/09/02 09:11:20;;;;;;;1.70;1.30;;;19.90;98.00;;;;;;5094347;28;20467;-70
2021/09/02 09:13:48;;;;;;;2.13;1.80;;;20.00;98.00;;;;;;5094202;28;20472;-70
2021/09/02 09:16:15;;;;;;;1.73;1.57;;;20.20;98.00;;;;;;5094212;28;20500;-69
2021/09/02 09:18:44;;;;;;;2.03;1.47;;;20.30;98.00;;;;;;5094028;28;20492;-69
2021/09/02 09:21:14;;;;;;;3.10;1.67;;;20.40;98.00;;;;;;5093773;28;20525;-70
2021/09/02 09:23:55;;;;;;;1.70;1.40;;;20.40;98.00;;;;;;5093863;28;20549;-69
2021/09/02 09:26:25;;;;;;;1.70;1.40;;;20.60;98.00;;;;;;5093718;28;20455;-69
2021/09/02 09:28:55;;;;;;;2.13;1.80;;;20.70;98.00;;;;;;5093496;28;20601;-69
2021/09/02 09:31:31;;;;;;;1.50;1.50;;;20.90;98.00;;;;;;5093767;28;21022;-70
2021/09/02 09:34:00;;;;;;;2.43;1.90;;;21.20;98.00;;;;;;5093226;28;20487;-69
2021/09/02 09:36:30;;;;;;;2.83;1.90;;;21.50;98.00;;;;;;5093409;28;20869;-70
2021/09/02 09:39:03;;;;;;;1.87;1.50;;;21.70;98.00;;;;;;5093655;28;20451;-69
2021/09/02 09:41:39;;;;;;;7.03;2.50;;;21.90;98.00;;;;;;5093390;28;20502;-70
2021/09/02 09:44:20;;;;;;;2.00;1.57;;;22.10;97.50;;;;;;5093349;28;20455;-69
2021/09/02 09:47:14;;;;;;;1.93;1.83;;;22.00;95.90;;;;;;5092021;28;20942;-71
2021/09/02 09:49:47;;;;;;;3.37;2.40;;;22.10;97.20;;;;;;5093171;28;21055;-69
2021/09/02 09:52:21;;;;;;;3.00;1.97;;;22.40;98.00;;;;;;5092064;28;20765;-70
2021/09/02 09:54:49;;;;;;;3.20;2.17;;;22.60;98.00;;;;;;5093173;28;21105;-70
2021/09/02 09:57:17;;;;;;;1.97;1.80;;;22.50;95.30;;;;;;5093260;28;20479;-70
2021/09/02 09:59:45;;;;;;;1.60;1.50;;;22.50;96.10;;;;;;5093133;28;20459;-71
2021/09/02 10:02:13;;;;;;;2.23;1.90;;;22.50;96.70;;;;;;5093065;28;20456;-69
2021/09/02 10:04:42;;;;;;;3.27;1.90;;;22.50;95.40;;;;;;5093135;28;20460;-71
2021/09/02 10:07:12;;;;;;;2.13;1.83;;;22.40;94.50;;;;;;5093900;28;20458;-69
2021/09/02 10:09:40;;;;;;;3.23;2.20;;;22.40;96.80;;;;;;5093408;28;20904;-70
2021/09/02 10:12:07;;;;;;;2.43;1.70;;;22.60;96.40;;;;;;5092887;28;20456;-70
2021/09/02 10:14:44;;;;;;;2.77;2.13;;;22.80;95.10;;;;;;5092982;28;20521;-69
2021/09/02 10:17:11;;;;;;;1.83;1.60;;;22.70;95.70;;;;;;5092831;28;21011;-69
2021/09/02 10:19:39;;;;;;;2.10;1.90;;;22.90;96.10;;;;;;5092997;28;20487;-69
2021/09/02 10:22:07;;;;;;;2.83;1.70;;;23.00;94.90;;;;;;5092971;28;20533;-69
2021/09/02 10:24:38;;;;;;;2.10;1.97;;;23.20;93.90;;;;;;5092766;28;20483;-70
2021/09/02 10:27:35;;;;;;;1.73;1.60;;;23.30;92.70;;;;;;5092785;28;20996;-70
2021/09/02 10:30:21;;;;;;;2.03;1.63;;;23.40;92.20;;;;;;5057620;28;20851;-71
2021/09/02 10:32:48;;;;;;;2.53;2.10;;;23.50;92.80;;;;;;5092602;28;20836;-70
2021/09/02 10:35:33;;;;;;;3.00;1.90;;;23.60;90.80;;;;;;5092706;28;20479;-70
2021/09/02 10:38:00;;;;;;;3.33;1.87;;;23.70;90.80;;;;;;5092812;28;20467;-69
2021/09/02 10:40:47;;;;;;;2.43;2.13;;;24.00;91.00;;;;;;5092471;28;20483;-71
2021/09/02 10:43:14;;;;;;;2.53;1.80;;;24.10;89.60;;;;;;5092418;28;20484;-70
2021/09/02 10:45:43;;;;;;;3.00;2.03;;;24.20;87.30;;;;;;5092178;28;20488;-70
2021/09/02 10:48:18;;;;;;;2.93;2.27;;;24.30;87.10;;;;;;5091714;28;20549;-70
2021/09/02 10:50:47;;;;;;;3.07;2.27;;;24.30;86.90;;;;;;5091957;28;20451;-71
2021/09/02 10:53:15;;;;;;;2.30;1.87;;;24.50;88.60;;;;;;5092076;28;20467;-70
2021/09/02 10:55:50;;;;;;;2.90;2.50;;;24.50;85.20;;;;;;5091931;28;20922;-71
2021/09/02 10:58:45;;;;;;;1.97;1.80;;;24.40;86.70;;;;;;5092137;28;20476;-71
2021/09/02 11:01:28;;;;;;;3.57;1.97;;;24.60;88.40;;;;;;5091750;28;20492;-70
2021/09/02 11:03:57;;;;;;;3.87;2.23;;;24.80;87.20;;;;;;5091688;28;20454;-72
2021/09/02 11:06:24;;;;;;;3.00;2.43;;;24.90;86.10;;;;;;5090657;28;20792;-71
2021/09/02 11:08:52;;;;;;;3.63;2.27;;;25.10;87.00;;;;;;5091865;28;20484;-71
2021/09/02 11:11:20;;;;;;;4.00;1.80;;;25.30;83.70;;;;;;5091858;28;20999;-73
2021/09/02 11:13:49;;;;;;;2.20;1.90;;;25.40;84.50;;;;;;5091867;28;20451;-72
2021/09/02 11:16:18;;;;;;;3.20;2.00;;;25.30;83.90;;;;;;5091726;28;20495;-71
2021/09/02 11:18:48;;;;;;;2.53;1.67;;;25.50;84.00;;;;;;5091885;28;20509;-71
2021/09/02 11:21:17;;;;;;;3.20;2.00;;;25.50;82.80;;;;;;5091869;28;20479;-70
2021/09/02 11:23:45;;;;;;;2.43;2.00;;;25.50;85.10;;;;;;5091816;28;20495;-71
2021/09/02 11:26:13;;;;;;;2.70;2.07;;;25.80;83.40;;;;;;5091844;28;21150;-71
2021/09/02 11:28:50;;;;;;;2.83;1.93;;;25.90;81.90;;;;;;5091576;28;20476;-71
2021/09/02 11:31:17;;;;;;;2.97;2.00;;;26.10;82.00;;;;;;5091736;28;20973;-71
2021/09/02 11:33:50;;;;;;;3.00;2.13;;;26.40;81.20;;;;;;5090664;28;20491;-72
2021/09/02 11:36:19;;;;;;;2.40;1.97;;;26.70;79.80;;;;;;5091739;28;20456;-72
2021/09/02 11:38:46;;;;;;;3.33;2.00;;;26.90;80.60;;;;;;5091451;28;20481;-71
2021/09/02 11:41:18;;;;;;;2.27;1.70;;;27.00;79.90;;;;;;5091710;28;20509;-70
2021/09/02 11:43:45;;;;;;;2.17;1.80;;;27.00;78.50;;;;;;5091726;28;20459;-70
2021/09/02 11:46:12;;;;;;;3.60;2.50;;;27.00;79.00;;;;;;5091401;28;20513;-73
2021/09/02 11:48:52;;;;;;;1.77;1.63;;;27.00;79.90;;;;;;5091871;28;20456;-71
2021/09/02 11:51:24;;;;;;;2.63;1.80;;;27.00;78.50;;;;;;5091933;28;20463;-71
2021/09/02 11:54:03;;;;;;;2.80;1.80;;;26.90;79.20;;;;;;5091544;28;20456;-71
2021/09/02 11:56:32;;;;;;;3.13;1.87;;;26.70;79.40;;;;;;5091451;28;20497;-72
2021/09/02 11:59:00;;;;;;;1.90;1.60;;;26.80;77.60;;;;;;5091539;28;20578;-74
2021/09/02 12:01:27;;;;;;;2.03;1.63;;;26.80;78.30;;;;;;5073691;28;20456;-73
2021/09/02 12:03:56;;;;;;;2.53;1.77;;;26.90;80.10;;;;;;5091530;28;20481;-71
2021/09/02 12:06:24;;;;;;;3.37;1.80;;;26.80;79.50;;;;;;5091308;28;20447;-72
2021/09/02 12:08:53;;;;;;;2.27;2.10;;;26.80;79.70;;;;;;5091274;28;20510;-72
2021/09/02 12:11:21;;;;;;;3.83;2.37;;;26.50;79.60;;;;;;5090175;28;20500;-71
2021/09/02 12:13:48;;;;;;;3.00;2.00;;;26.50;79.60;;;;;;5089958;28;20452;-71
2021/09/02 12:16:17;;;;;;;2.43;1.97;;;26.40;80.40;;;;;;5094510;28;20502;-69
2021/09/02 12:18:49;;;;;;;2.37;1.97;;;26.40;79.60;;;;;;5095256;28;20460;-69
2021/09/02 12:21:19;;;;;;;2.07;1.70;;;26.30;79.60;;;;;;5093945;28;20456;-69
2021/09/02 12:23:49;;;;;;;3.03;1.83;;;26.30;81.60;;;;;;5090223;28;20480;-69
2021/09/02 12:26:19;;;;;;;2.33;1.77;;;26.10;79.50;;;;;;5083276;28;20448;-69
2021/09/02 12:28:50;;;;;;;2.30;1.73;;;26.20;82.60;;;;;;5094553;28;20466;-70
2021/09/02 12:31:22;;;;;;;2.23;1.70;;;26.40;80.00;;;;;;5094760;28;20467;-69
2021/09/02 12:34:05;;;;;;;3.17;1.90;;;26.50;79.30;;;;;;5094763;28;20494;-73
2021/09/02 12:36:36;;;;;;;2.40;1.57;;;26.50;78.40;;;;;;5094643;28;20516;-69
2021/09/02 12:39:22;;;;;;;3.53;1.70;;;26.70;79.60;;;;;;5094979;28;20451;-69
2021/09/02 12:41:51;;;;;;;2.80;2.00;;;26.70;79.40;;;;;;5094554;28;20460;-69
2021/09/02 12:44:29;;;;;;;2.90;1.77;;;26.70;78.50;;;;;;5094234;28;20871;-71
2021/09/02 12:46:59;;;;;;;2.43;1.80;;;26.80;79.20;;;;;;5094624;28;20471;-70
2021/09/02 12:49:29;;;;;;;3.53;2.20;;;27.00;78.80;;;;;;5094260;28;20484;-69
2021/09/02 12:52:02;;;;;;;2.77;1.90;;;27.10;79.10;;;;;;5094377;28;20521;-68
2021/09/02 12:54:32;;;;;;;3.47;2.23;;;27.10;79.80;;;;;;5094346;28;20484;-69
2021/09/02 12:56:59;;;;;;;3.00;1.97;;;27.20;78.30;;;;;;5094404;28;20468;-69
2021/09/02 12:59:26;;;;;;;2.80;1.83;;;27.30;76.50;;;;;;5093875;28;20490;-70